sensor_id;sensor_type;location;lat;lon;timestamp;temperature;humidity
15625;DHT22;7912;51.376;6.126;2022-11-15T00:01:26;12.20;99.90
15625;DHT22;7912;51.376;6.126;2022-11-15T00:03:53;12.30;99.90
15625;DHT22;7912;51.376;6.126;2022-11-15T00:06:20;12.30;99.90
15625;DHT22;7912;51.376;6.126;2022-11-15T00:08:47;12.30;99.90
15625;DHT22;7912;51.376;6.126;2022-11-15T00:11:15;12.40;99.90
15625;DHT22;7912;51.376;6.126;2022-11-15T00:13:42;12.40;99.90
15625;DHT22;7912;51.376;6.126;2022-11-15T00:16:09;12.40;99.90
15625;DHT22;7912;51.376;6.126;2022-11-15T00:18:38;12.50;99.90
15625;DHT22;7912;51.376;6.126;2022-11-15T00:21:07;12.50;99.90
15625;DHT22;7912;51.376;6.126;2022-11-15T00:23:37;12.50;99.90
15625;DHT22;7912;51.376;6.126;2022-11-15T00:26:04;12.60;99.90
15625;DHT22;7912;51.376;6.126;2022-11-15T00:28:31;12.60;99.90
15625;DHT22;7912;51.376;6.126;2022-11-15T00:31:03;12.60;99.90
15625;DHT22;7912;51.376;6.126;2022-11-15T00:33:32;12.70;99.90
15625;DHT22;7912;51.376;6.126;2022-11-15T00:36:05;12.70;99.90
15625;DHT22;7912;51.376;6.126;2022-11-15T00:38:37;12.80;99.90
15625;DHT22;7912;51.376;6.126;2022-11-15T00:41:07;12.80;99.90
15625;DHT22;7912;51.376;6.126;2022-11-15T00:43:35;12.80;99.90
15625;DHT22;7912;51.376;6.126;2022-11-15T00:46:03;12.90;99.90
15625;DHT22;7912;51.376;6.126;2022-11-15T00:48:30;12.90;99.90
15625;DHT22;7912;51.376;6.126;2022-11-15T00:50:58;12.90;99.90
15625;DHT22;7912;51.376;6.126;2022-11-15T00:53:25;13.00;99.90
15625;DHT22;7912;51.376;6.126;2022-11-15T00:55:52;13.00;99.90
15625;DHT22;7912;51.376;6.126;2022-11-15T00:58:19;13.00;99.90
15625;DHT22;7912;51.376;6.126;2022-11-15T01:00:46;13.00;99.90
15625;DHT22;7912;51.376;6.126;2022-11-15T01:03:14;13.10;99.90
15625;DHT22;7912;51.376;6.126;2022-11-15T01:05:41;13.10;99.90
15625;DHT22;7912;51.376;6.126;2022-11-15T01:08:13;13.10;99.90
15625;DHT22;7912;51.376;6.126;2022-11-15T01:10:41;13.10;99.90
15625;DHT22;7912;51.376;6.126;2022-11-15T01:13:08;13.10;99.90
15625;DHT22;7912;51.376;6.126;2022-11-15T01:15:39;13.20;99.90
15625;DHT22;7912;51.376;6.126;2022-11-15T01:18:07;13.20;99.90
15625;DHT22;7912;51.376;6.126;2022-11-15T01:20:38;13.20;99.90
15625;DHT22;7912;51.376;6.126;2022-11-15T01:23:09;13.20;99.90
15625;DHT22;7912;51.376;6.126;2022-11-15T01:25:36;13.20;99.90
15625;DHT22;7912;51.376;6.126;2022-11-15T01:28:03;13.30;99.90
15625;DHT22;7912;51.376;6.126;2022-11-15T01:30:31;13.20;99.90
15625;DHT22;7912;51.376;6.126;2022-11-15T01:32:58;13.30;99.90
15625;DHT22;7912;51.376;6.126;2022-11-15T01:35:25;13.30;99.90
15625;DHT22;7912;51.376;6.126;2022-11-15T01:37:52;13.30;99.90
15625;DHT22;7912;51.376;6.126;2022-11-15T01:40:19;13.30;99.90
15625;DHT22;7912;51.376;6.126;2022-11-15T01:42:46;13.30;99.90
15625;DHT22;7912;51.376;6.126;2022-11-15T01:45:16;13.30;99.90
15625;DHT22;7912;51.376;6.126;2022-11-15T01:47:48;13.30;99.90
15625;DHT22;7912;51.376;6.126;2022-11-15T01:50:29;13.30;99.90
15625;DHT22;7912;51.376;6.126;2022-11-15T01:52:58;13.40;99.90
15625;DHT22;7912;51.376;6.126;2022-11-15T01:55:28;13.40;99.90
15625;DHT22;7912;51.376;6.126;2022-11-15T01:57:59;13.40;99.90
15625;DHT22;7912;51.376;6.126;2022-11-15T02:00:31;13.40;99.90
15625;DHT22;7912;51.376;6.126;2022-11-15T02:02:58;13.50;99.90
15625;DHT22;7912;51.376;6.126;2022-11-15T02:05:26;13.50;99.90
15625;DHT22;7912;51.376;6.126;2022-11-15T02:07:54;13.50;99.90
15625;DHT22;7912;51.376;6.126;2022-11-15T02:10:23;13.50;99.90
15625;DHT22;7912;51.376;6.126;2022-11-15T02:12:52;13.50;99.90
15625;DHT22;7912;51.376;6.126;2022-11-15T02:15:20;13.60;99.90
15625;DHT22;7912;51.376;6.126;2022-11-15T02:17:58;13.60;99.90
15625;DHT22;7912;51.376;6.126;2022-11-15T02:20:49;13.60;99.90
15625;DHT22;7912;51.376;6.126;2022-11-15T02:32:44;13.60;99.90
15625;DHT22;7912;51.376;6.126;2022-11-15T02:35:42;13.60;99.90
15625;DHT22;7912;51.376;6.126;2022-11-15T02:41:14;13.60;99.90
15625;DHT22;7912;51.376;6.126;2022-11-15T02:44:04;13.70;99.90
15625;DHT22;7912;51.376;6.126;2022-11-15T02:49:53;13.70;99.90
15625;DHT22;7912;51.376;6.126;2022-11-15T02:52:24;13.60;99.90
15625;DHT22;7912;51.376;6.126;2022-11-15T02:55:00;13.60;99.90
15625;DHT22;7912;51.376;6.126;2022-11-15T02:57:52;13.70;99.90
15625;DHT22;7912;51.376;6.126;2022-11-15T03:00:35;13.60;99.90
15625;DHT22;7912;51.376;6.126;2022-11-15T03:03:36;13.70;99.90
15625;DHT22;7912;51.376;6.126;2022-11-15T03:12:03;13.70;99.90
15625;DHT22;7912;51.376;6.126;2022-11-15T03:14:49;13.70;99.90
15625;DHT22;7912;51.376;6.126;2022-11-15T03:20:00;13.80;99.90
15625;DHT22;7912;51.376;6.126;2022-11-15T03:22:34;13.90;99.90
15625;DHT22;7912;51.376;6.126;2022-11-15T03:25:08;13.90;99.90
15625;DHT22;7912;51.376;6.126;2022-11-15T03:27:42;14.00;99.90
15625;DHT22;7912;51.376;6.126;2022-11-15T03:30:15;14.00;99.90
15625;DHT22;7912;51.376;6.126;2022-11-15T03:32:53;14.00;99.90
15625;DHT22;7912;51.376;6.126;2022-11-15T03:35:25;14.00;99.90
15625;DHT22;7912;51.376;6.126;2022-11-15T03:40:59;14.10;99.90
15625;DHT22;7912;51.376;6.126;2022-11-15T03:43:58;14.10;99.90
15625;DHT22;7912;51.376;6.126;2022-11-15T03:46:40;14.10;99.90
15625;DHT22;7912;51.376;6.126;2022-11-15T03:49:19;14.20;99.90
15625;DHT22;7912;51.376;6.126;2022-11-15T03:51:52;14.20;99.90
15625;DHT22;7912;51.376;6.126;2022-11-15T03:54:19;14.20;99.90
15625;DHT22;7912;51.376;6.126;2022-11-15T03:56:47;14.20;99.90
15625;DHT22;7912;51.376;6.126;2022-11-15T03:59:14;14.20;99.90
15625;DHT22;7912;51.376;6.126;2022-11-15T04:01:41;14.20;99.90
15625;DHT22;7912;51.376;6.126;2022-11-15T04:04:08;14.20;99.90
15625;DHT22;7912;51.376;6.126;2022-11-15T04:06:35;14.20;99.90
15625;DHT22;7912;51.376;6.126;2022-11-15T04:09:03;14.30;99.90
15625;DHT22;7912;51.376;6.126;2022-11-15T04:11:30;14.30;99.90
15625;DHT22;7912;51.376;6.126;2022-11-15T04:13:57;14.30;99.90
15625;DHT22;7912;51.376;6.126;2022-11-15T04:16:24;14.30;99.90
15625;DHT22;7912;51.376;6.126;2022-11-15T04:18:51;14.40;99.90
15625;DHT22;7912;51.376;6.126;2022-11-15T04:21:38;14.40;99.90
15625;DHT22;7912;51.376;6.126;2022-11-15T04:24:24;14.40;99.90
15625;DHT22;7912;51.376;6.126;2022-11-15T04:26:51;14.40;99.90
15625;DHT22;7912;51.376;6.126;2022-11-15T04:29:18;14.40;99.90
15625;DHT22;7912;51.376;6.126;2022-11-15T04:32:05;14.40;99.90
15625;DHT22;7912;51.376;6.126;2022-11-15T04:34:33;14.40;99.90
15625;DHT22;7912;51.376;6.126;2022-11-15T04:37:01;14.40;99.90
15625;DHT22;7912;51.376;6.126;2022-11-15T04:39:40;14.50;99.90
15625;DHT22;7912;51.376;6.126;2022-11-15T04:42:09;14.50;99.90
15625;DHT22;7912;51.376;6.126;2022-11-15T04:44:36;14.50;99.90
15625;DHT22;7912;51.376;6.126;2022-11-15T04:47:04;14.50;99.90
15625;DHT22;7912;51.376;6.126;2022-11-15T04:49:31;14.50;99.90
15625;DHT22;7912;51.376;6.126;2022-11-15T04:51:58;14.50;99.90
15625;DHT22;7912;51.376;6.126;2022-11-15T04:54:26;14.50;99.90
15625;DHT22;7912;51.376;6.126;2022-11-15T04:56:53;14.50;99.90
15625;DHT22;7912;51.376;6.126;2022-11-15T04:59:20;14.60;99.90
15625;DHT22;7912;51.376;6.126;2022-11-15T05:01:47;14.60;99.90
15625;DHT22;7912;51.376;6.126;2022-11-15T05:04:14;14.50;99.90
15625;DHT22;7912;51.376;6.126;2022-11-15T05:06:51;14.60;99.90
15625;DHT22;7912;51.376;6.126;2022-11-15T05:09:19;14.60;99.90
15625;DHT22;7912;51.376;6.126;2022-11-15T05:11:47;14.60;99.90
15625;DHT22;7912;51.376;6.126;2022-11-15T05:14:15;14.60;99.90
15625;DHT22;7912;51.376;6.126;2022-11-15T05:16:42;14.60;99.90
15625;DHT22;7912;51.376;6.126;2022-11-15T05:19:10;14.60;99.90
15625;DHT22;7912;51.376;6.126;2022-11-15T05:21:37;14.70;99.90
15625;DHT22;7912;51.376;6.126;2022-11-15T05:24:05;14.70;99.90
15625;DHT22;7912;51.376;6.126;2022-11-15T05:26:33;14.60;99.90
15625;DHT22;7912;51.376;6.126;2022-11-15T05:29:01;14.60;99.90
15625;DHT22;7912;51.376;6.126;2022-11-15T05:31:28;14.70;99.90
15625;DHT22;7912;51.376;6.126;2022-11-15T05:33:56;14.70;99.90
15625;DHT22;7912;51.376;6.126;2022-11-15T05:36:41;14.70;99.90
15625;DHT22;7912;51.376;6.126;2022-11-15T05:39:09;14.70;99.90
15625;DHT22;7912;51.376;6.126;2022-11-15T05:42:01;14.70;99.90
15625;DHT22;7912;51.376;6.126;2022-11-15T05:44:43;14.70;99.90
15625;DHT22;7912;51.376;6.126;2022-11-15T05:47:17;14.70;99.90
15625;DHT22;7912;51.376;6.126;2022-11-15T05:49:52;14.70;99.90
15625;DHT22;7912;51.376;6.126;2022-11-15T05:52:23;14.70;99.90
15625;DHT22;7912;51.376;6.126;2022-11-15T05:54:56;14.70;99.90
15625;DHT22;7912;51.376;6.126;2022-11-15T05:57:24;14.70;99.90
15625;DHT22;7912;51.376;6.126;2022-11-15T05:59:51;14.70;99.90
15625;DHT22;7912;51.376;6.126;2022-11-15T06:02:20;14.70;99.90
15625;DHT22;7912;51.376;6.126;2022-11-15T06:04:47;14.80;99.90
15625;DHT22;7912;51.376;6.126;2022-11-15T06:07:14;14.80;99.90
15625;DHT22;7912;51.376;6.126;2022-11-15T06:09:41;14.70;99.90
15625;DHT22;7912;51.376;6.126;2022-11-15T06:12:08;14.80;99.90
15625;DHT22;7912;51.376;6.126;2022-11-15T06:14:36;14.80;99.90
15625;DHT22;7912;51.376;6.126;2022-11-15T06:17:03;14.80;99.90
15625;DHT22;7912;51.376;6.126;2022-11-15T06:19:36;14.80;99.90
15625;DHT22;7912;51.376;6.126;2022-11-15T06:22:03;14.80;99.90
15625;DHT22;7912;51.376;6.126;2022-11-15T06:24:31;14.80;99.90
15625;DHT22;7912;51.376;6.126;2022-11-15T06:26:58;14.80;99.90
15625;DHT22;7912;51.376;6.126;2022-11-15T06:29:25;14.80;99.90
15625;DHT22;7912;51.376;6.126;2022-11-15T06:31:52;14.80;99.90
15625;DHT22;7912;51.376;6.126;2022-11-15T06:34:19;14.80;99.90
15625;DHT22;7912;51.376;6.126;2022-11-15T06:36:46;14.80;99.90
15625;DHT22;7912;51.376;6.126;2022-11-15T06:39:14;14.80;99.90
15625;DHT22;7912;51.376;6.126;2022-11-15T06:41:41;14.90;99.90
15625;DHT22;7912;51.376;6.126;2022-11-15T06:44:08;14.80;99.90
15625;DHT22;7912;51.376;6.126;2022-11-15T06:46:35;14.90;99.90
15625;DHT22;7912;51.376;6.126;2022-11-15T06:49:03;14.90;99.90
15625;DHT22;7912;51.376;6.126;2022-11-15T06:51:35;14.90;99.90
15625;DHT22;7912;51.376;6.126;2022-11-15T06:54:02;14.90;99.90
15625;DHT22;7912;51.376;6.126;2022-11-15T06:56:29;14.90;99.90
15625;DHT22;7912;51.376;6.126;2022-11-15T06:58:57;14.90;99.90
15625;DHT22;7912;51.376;6.126;2022-11-15T07:01:24;14.90;99.90
15625;DHT22;7912;51.376;6.126;2022-11-15T07:03:57;14.90;99.90
15625;DHT22;7912;51.376;6.126;2022-11-15T07:06:24;14.90;99.90
15625;DHT22;7912;51.376;6.126;2022-11-15T07:08:51;14.90;99.90
15625;DHT22;7912;51.376;6.126;2022-11-15T07:11:19;14.90;99.90
15625;DHT22;7912;51.376;6.126;2022-11-15T07:13:46;14.90;99.90
15625;DHT22;7912;51.376;6.126;2022-11-15T07:16:13;14.90;99.90
15625;DHT22;7912;51.376;6.126;2022-11-15T07:18:41;14.90;99.90
15625;DHT22;7912;51.376;6.126;2022-11-15T07:21:10;14.90;99.90
15625;DHT22;7912;51.376;6.126;2022-11-15T07:23:38;14.90;99.90
15625;DHT22;7912;51.376;6.126;2022-11-15T07:26:07;14.90;99.90
15625;DHT22;7912;51.376;6.126;2022-11-15T07:28:35;14.80;99.90
15625;DHT22;7912;51.376;6.126;2022-11-15T07:31:04;14.80;99.90
15625;DHT22;7912;51.376;6.126;2022-11-15T07:33:32;14.80;99.90
15625;DHT22;7912;51.376;6.126;2022-11-15T07:36:02;14.80;99.90
15625;DHT22;7912;51.376;6.126;2022-11-15T07:38:31;14.80;99.90
15625;DHT22;7912;51.376;6.126;2022-11-15T07:41:05;14.80;99.90
15625;DHT22;7912;51.376;6.126;2022-11-15T07:43:33;14.80;99.90
15625;DHT22;7912;51.376;6.126;2022-11-15T07:46:06;14.80;99.90
15625;DHT22;7912;51.376;6.126;2022-11-15T07:48:37;14.80;99.90
15625;DHT22;7912;51.376;6.126;2022-11-15T07:51:12;14.80;99.90
15625;DHT22;7912;51.376;6.126;2022-11-15T07:53:42;14.80;99.90
15625;DHT22;7912;51.376;6.126;2022-11-15T07:56:10;14.80;99.90
15625;DHT22;7912;51.376;6.126;2022-11-15T07:58:37;14.80;99.90
15625;DHT22;7912;51.376;6.126;2022-11-15T08:01:07;14.80;99.90
15625;DHT22;7912;51.376;6.126;2022-11-15T08:03:36;14.80;99.90
15625;DHT22;7912;51.376;6.126;2022-11-15T08:06:04;14.80;99.90
15625;DHT22;7912;51.376;6.126;2022-11-15T08:08:31;14.80;99.90
15625;DHT22;7912;51.376;6.126;2022-11-15T08:10:59;14.80;99.90
15625;DHT22;7912;51.376;6.126;2022-11-15T08:13:26;14.80;99.90
15625;DHT22;7912;51.376;6.126;2022-11-15T08:16:01;14.80;99.90
15625;DHT22;7912;51.376;6.126;2022-11-15T08:18:32;14.80;99.90
15625;DHT22;7912;51.376;6.126;2022-11-15T08:21:00;14.80;99.90
15625;DHT22;7912;51.376;6.126;2022-11-15T08:23:28;14.90;99.90
15625;DHT22;7912;51.376;6.126;2022-11-15T08:26:01;14.80;99.90
15625;DHT22;7912;51.376;6.126;2022-11-15T08:28:32;14.90;99.90
15625;DHT22;7912;51.376;6.126;2022-11-15T08:31:00;14.90;99.90
15625;DHT22;7912;51.376;6.126;2022-11-15T08:33:27;14.90;99.90
15625;DHT22;7912;51.376;6.126;2022-11-15T08:35:59;14.90;99.90
15625;DHT22;7912;51.376;6.126;2022-11-15T08:38:27;14.90;99.90
15625;DHT22;7912;51.376;6.126;2022-11-15T08:41:04;15.00;99.90
15625;DHT22;7912;51.376;6.126;2022-11-15T08:43:32;15.00;99.90
15625;DHT22;7912;51.376;6.126;2022-11-15T08:46:00;15.00;99.90
15625;DHT22;7912;51.376;6.126;2022-11-15T08:48:27;15.00;99.90
15625;DHT22;7912;51.376;6.126;2022-11-15T08:50:56;15.00;99.90
15625;DHT22;7912;51.376;6.126;2022-11-15T08:53:24;15.00;99.90
15625;DHT22;7912;51.376;6.126;2022-11-15T08:55:51;15.10;99.90
15625;DHT22;7912;51.376;6.126;2022-11-15T08:58:18;15.10;99.90
15625;DHT22;7912;51.376;6.126;2022-11-15T09:00:45;15.10;99.90
15625;DHT22;7912;51.376;6.126;2022-11-15T09:03:12;15.20;99.90
15625;DHT22;7912;51.376;6.126;2022-11-15T09:05:39;15.20;99.90
15625;DHT22;7912;51.376;6.126;2022-11-15T09:08:06;15.30;99.90
15625;DHT22;7912;51.376;6.126;2022-11-15T09:10:53;15.30;99.90
15625;DHT22;7912;51.376;6.126;2022-11-15T09:13:21;15.40;99.90
15625;DHT22;7912;51.376;6.126;2022-11-15T09:15:48;15.40;99.90
15625;DHT22;7912;51.376;6.126;2022-11-15T09:18:16;15.50;99.90
15625;DHT22;7912;51.376;6.126;2022-11-15T09:20:43;15.50;99.90
15625;DHT22;7912;51.376;6.126;2022-11-15T09:23:10;15.50;99.90
15625;DHT22;7912;51.376;6.126;2022-11-15T09:25:37;15.50;99.90
15625;DHT22;7912;51.376;6.126;2022-11-15T09:28:08;15.50;99.90
15625;DHT22;7912;51.376;6.126;2022-11-15T09:30:35;15.50;99.90
15625;DHT22;7912;51.376;6.126;2022-11-15T09:33:10;15.50;99.90
15625;DHT22;7912;51.376;6.126;2022-11-15T09:35:38;15.50;99.90
15625;DHT22;7912;51.376;6.126;2022-11-15T09:38:07;15.40;99.90
15625;DHT22;7912;51.376;6.126;2022-11-15T09:40:36;15.40;99.90
15625;DHT22;7912;51.376;6.126;2022-11-15T09:46:12;15.40;99.90
15625;DHT22;7912;51.376;6.126;2022-11-15T09:49:01;15.40;99.90
15625;DHT22;7912;51.376;6.126;2022-11-15T09:51:33;15.40;99.90
15625;DHT22;7912;51.376;6.126;2022-11-15T10:00:21;15.30;99.90
15625;DHT22;7912;51.376;6.126;2022-11-15T10:03:18;15.40;99.90
15625;DHT22;7912;51.376;6.126;2022-11-15T10:06:01;15.40;99.90
15625;DHT22;7912;51.376;6.126;2022-11-15T10:08:45;15.40;99.90
15625;DHT22;7912;51.376;6.126;2022-11-15T10:11:25;15.40;99.90
15625;DHT22;7912;51.376;6.126;2022-11-15T10:22:39;15.50;99.90
15625;DHT22;7912;51.376;6.126;2022-11-15T10:27:40;15.60;99.90
15625;DHT22;7912;51.376;6.126;2022-11-15T10:30:15;15.60;99.90
15625;DHT22;7912;51.376;6.126;2022-11-15T10:32:45;15.70;99.90
15625;DHT22;7912;51.376;6.126;2022-11-15T10:35:40;15.80;99.90
15625;DHT22;7912;51.376;6.126;2022-11-15T10:38:11;15.80;99.90
15625;DHT22;7912;51.376;6.126;2022-11-15T10:40:40;16.00;99.90
15625;DHT22;7912;51.376;6.126;2022-11-15T10:45:37;16.10;99.90
15625;DHT22;7912;51.376;6.126;2022-11-15T10:50:43;16.30;99.90
15625;DHT22;7912;51.376;6.126;2022-11-15T10:53:37;16.40;99.90
15625;DHT22;7912;51.376;6.126;2022-11-15T10:56:13;16.50;99.90
15625;DHT22;7912;51.376;6.126;2022-11-15T10:58:50;16.60;99.90
15625;DHT22;7912;51.376;6.126;2022-11-15T11:01:26;16.70;99.90
15625;DHT22;7912;51.376;6.126;2022-11-15T11:04:16;16.70;99.90
15625;DHT22;7912;51.376;6.126;2022-11-15T11:06:58;16.80;99.90
15625;DHT22;7912;51.376;6.126;2022-11-15T11:09:39;16.90;99.90
15625;DHT22;7912;51.376;6.126;2022-11-15T11:12:10;16.90;99.90
15625;DHT22;7912;51.376;6.126;2022-11-15T11:14:39;17.00;99.90
15625;DHT22;7912;51.376;6.126;2022-11-15T11:20:41;17.00;99.90
15625;DHT22;7912;51.376;6.126;2022-11-15T11:26:04;17.10;99.90
15625;DHT22;7912;51.376;6.126;2022-11-15T11:32:18;17.20;99.90
15625;DHT22;7912;51.376;6.126;2022-11-15T11:37:49;17.40;99.90
15625;DHT22;7912;51.376;6.126;2022-11-15T11:40:37;17.40;99.90
15625;DHT22;7912;51.376;6.126;2022-11-15T11:43:26;17.50;99.70
15625;DHT22;7912;51.376;6.126;2022-11-15T11:46:47;17.50;99.70
15625;DHT22;7912;51.376;6.126;2022-11-15T11:49:46;17.60;99.00
15625;DHT22;7912;51.376;6.126;2022-11-15T11:52:34;17.70;98.70
15625;DHT22;7912;51.376;6.126;2022-11-15T11:55:31;17.70;98.40
15625;DHT22;7912;51.376;6.126;2022-11-15T12:00:55;17.80;98.20
15625;DHT22;7912;51.376;6.126;2022-11-15T12:09:12;18.00;97.40
15625;DHT22;7912;51.376;6.126;2022-11-15T12:11:52;18.00;97.10
15625;DHT22;7912;51.376;6.126;2022-11-15T12:14:34;18.10;97.60
15625;DHT22;7912;51.376;6.126;2022-11-15T12:17:10;18.20;97.60
15625;DHT22;7912;51.376;6.126;2022-11-15T12:19:39;18.30;97.20
15625;DHT22;7912;51.376;6.126;2022-11-15T12:22:22;18.40;97.20
15625;DHT22;7912;51.376;6.126;2022-11-15T12:25:08;18.50;96.80
15625;DHT22;7912;51.376;6.126;2022-11-15T12:28:01;18.60;95.90
15625;DHT22;7912;51.376;6.126;2022-11-15T12:30:54;18.70;95.30
15625;DHT22;7912;51.376;6.126;2022-11-15T12:33:45;18.70;95.40
15625;DHT22;7912;51.376;6.126;2022-11-15T12:38:52;18.90;94.40
15625;DHT22;7912;51.376;6.126;2022-11-15T12:41:35;18.90;95.10
15625;DHT22;7912;51.376;6.126;2022-11-15T12:44:11;18.90;94.70
15625;DHT22;7912;51.376;6.126;2022-11-15T12:59:56;19.10;93.20
15625;DHT22;7912;51.376;6.126;2022-11-15T13:02:42;19.10;92.50
15625;DHT22;7912;51.376;6.126;2022-11-15T13:17:43;18.80;93.20
15625;DHT22;7912;51.376;6.126;2022-11-15T13:20:28;18.80;93.10
15625;DHT22;7912;51.376;6.126;2022-11-15T13:30:37;18.90;92.50
15625;DHT22;7912;51.376;6.126;2022-11-15T13:33:15;18.90;92.60
15625;DHT22;7912;51.376;6.126;2022-11-15T13:36:01;18.90;92.40
15625;DHT22;7912;51.376;6.126;2022-11-15T13:38:39;18.90;92.70
15625;DHT22;7912;51.376;6.126;2022-11-15T13:43:43;18.90;92.40
15625;DHT22;7912;51.376;6.126;2022-11-15T13:46:17;18.90;92.70
15625;DHT22;7912;51.376;6.126;2022-11-15T13:48:59;18.90;92.30
15625;DHT22;7912;51.376;6.126;2022-11-15T13:51:49;18.90;92.20
15625;DHT22;7912;51.376;6.126;2022-11-15T13:54:34;18.90;92.10
15625;DHT22;7912;51.376;6.126;2022-11-15T13:57:22;18.80;92.20
15625;DHT22;7912;51.376;6.126;2022-11-15T13:59:57;18.80;92.80
15625;DHT22;7912;51.376;6.126;2022-11-15T14:02:32;18.70;92.90
15625;DHT22;7912;51.376;6.126;2022-11-15T14:05:20;18.60;93.20
15625;DHT22;7912;51.376;6.126;2022-11-15T14:07:58;18.60;92.80
15625;DHT22;7912;51.376;6.126;2022-11-15T14:10:28;18.60;93.00
15625;DHT22;7912;51.376;6.126;2022-11-15T14:12:58;18.50;93.10
15625;DHT22;7912;51.376;6.126;2022-11-15T14:18:02;18.40;92.60
15625;DHT22;7912;51.376;6.126;2022-11-15T14:20:36;18.40;93.20
15625;DHT22;7912;51.376;6.126;2022-11-15T14:23:25;18.30;93.20
15625;DHT22;7912;51.376;6.126;2022-11-15T14:25:55;18.20;93.60
15625;DHT22;7912;51.376;6.126;2022-11-15T14:30:56;18.10;94.20
15625;DHT22;7912;51.376;6.126;2022-11-15T14:33:30;18.00;94.40
15625;DHT22;7912;51.376;6.126;2022-11-15T14:36:14;18.00;94.70
15625;DHT22;7912;51.376;6.126;2022-11-15T14:38:43;17.90;94.70
15625;DHT22;7912;51.376;6.126;2022-11-15T14:41:18;17.90;95.10
15625;DHT22;7912;51.376;6.126;2022-11-15T14:43:47;17.80;95.10
15625;DHT22;7912;51.376;6.126;2022-11-15T14:46:14;17.80;95.40
15625;DHT22;7912;51.376;6.126;2022-11-15T14:48:42;17.70;95.60
15625;DHT22;7912;51.376;6.126;2022-11-15T14:51:16;17.70;95.70
15625;DHT22;7912;51.376;6.126;2022-11-15T14:53:45;17.70;95.90
15625;DHT22;7912;51.376;6.126;2022-11-15T14:56:14;17.70;96.10
15625;DHT22;7912;51.376;6.126;2022-11-15T14:58:43;17.70;96.30
15625;DHT22;7912;51.376;6.126;2022-11-15T15:01:24;17.60;96.40
15625;DHT22;7912;51.376;6.126;2022-11-15T15:03:53;17.60;96.60
15625;DHT22;7912;51.376;6.126;2022-11-15T15:06:24;17.60;96.80
15625;DHT22;7912;51.376;6.126;2022-11-15T15:08:52;17.60;97.00
15625;DHT22;7912;51.376;6.126;2022-11-15T15:11:23;17.60;97.20
15625;DHT22;7912;51.376;6.126;2022-11-15T15:13:53;17.60;97.40
15625;DHT22;7912;51.376;6.126;2022-11-15T15:16:24;17.50;97.50
15625;DHT22;7912;51.376;6.126;2022-11-15T15:18:51;17.50;97.70
15625;DHT22;7912;51.376;6.126;2022-11-15T15:21:28;17.50;97.90
15625;DHT22;7912;51.376;6.126;2022-11-15T15:24:03;17.50;98.10
15625;DHT22;7912;51.376;6.126;2022-11-15T15:26:30;17.50;98.20
15625;DHT22;7912;51.376;6.126;2022-11-15T15:29:01;17.40;98.40
15625;DHT22;7912;51.376;6.126;2022-11-15T15:31:29;17.40;98.60
15625;DHT22;7912;51.376;6.126;2022-11-15T15:33:56;17.40;98.70
15625;DHT22;7912;51.376;6.126;2022-11-15T15:36:23;17.30;98.90
15625;DHT22;7912;51.376;6.126;2022-11-15T15:38:50;17.30;99.10
15625;DHT22;7912;51.376;6.126;2022-11-15T15:41:18;17.30;99.30
15625;DHT22;7912;51.376;6.126;2022-11-15T15:43:45;17.30;99.40
15625;DHT22;7912;51.376;6.126;2022-11-15T15:46:17;17.20;99.50
15625;DHT22;7912;51.376;6.126;2022-11-15T15:48:46;17.20;99.70
15625;DHT22;7912;51.376;6.126;2022-11-15T15:51:13;17.20;99.80
15625;DHT22;7912;51.376;6.126;2022-11-15T15:53:47;17.20;99.90
15625;DHT22;7912;51.376;6.126;2022-11-15T15:56:15;17.10;99.90
15625;DHT22;7912;51.376;6.126;2022-11-15T15:58:42;17.10;99.90
15625;DHT22;7912;51.376;6.126;2022-11-15T16:01:09;17.10;99.90
15625;DHT22;7912;51.376;6.126;2022-11-15T16:03:36;17.10;99.90
15625;DHT22;7912;51.376;6.126;2022-11-15T16:06:03;17.00;99.90
15625;DHT22;7912;51.376;6.126;2022-11-15T16:08:31;17.10;99.90
15625;DHT22;7912;51.376;6.126;2022-11-15T16:11:19;17.00;99.90
15625;DHT22;7912;51.376;6.126;2022-11-15T16:13:46;17.00;99.90
15625;DHT22;7912;51.376;6.126;2022-11-15T16:16:24;17.00;99.90
15625;DHT22;7912;51.376;6.126;2022-11-15T16:18:53;17.00;99.90
15625;DHT22;7912;51.376;6.126;2022-11-15T16:21:21;16.90;99.90
15625;DHT22;7912;51.376;6.126;2022-11-15T16:23:48;17.00;99.90
15625;DHT22;7912;51.376;6.126;2022-11-15T16:26:25;17.00;99.90
15625;DHT22;7912;51.376;6.126;2022-11-15T16:28:54;17.00;99.90
15625;DHT22;7912;51.376;6.126;2022-11-15T16:31:21;17.00;99.90
15625;DHT22;7912;51.376;6.126;2022-11-15T16:33:49;16.90;99.90
15625;DHT22;7912;51.376;6.126;2022-11-15T16:36:24;16.90;99.90
15625;DHT22;7912;51.376;6.126;2022-11-15T16:38:56;16.90;99.90
15625;DHT22;7912;51.376;6.126;2022-11-15T16:41:23;16.90;99.90
15625;DHT22;7912;51.376;6.126;2022-11-15T16:43:54;16.90;99.90
15625;DHT22;7912;51.376;6.126;2022-11-15T16:46:55;16.90;99.90
15625;DHT22;7912;51.376;6.126;2022-11-15T16:49:22;16.90;99.90
15625;DHT22;7912;51.376;6.126;2022-11-15T16:51:50;16.90;99.90
15625;DHT22;7912;51.376;6.126;2022-11-15T16:54:17;16.80;99.90
15625;DHT22;7912;51.376;6.126;2022-11-15T16:56:44;16.80;99.90
15625;DHT22;7912;51.376;6.126;2022-11-15T16:59:15;16.80;99.90
15625;DHT22;7912;51.376;6.126;2022-11-15T17:01:43;16.80;99.90
15625;DHT22;7912;51.376;6.126;2022-11-15T17:04:19;16.80;99.90
15625;DHT22;7912;51.376;6.126;2022-11-15T17:06:48;16.80;99.90
15625;DHT22;7912;51.376;6.126;2022-11-15T17:09:18;16.80;99.90
15625;DHT22;7912;51.376;6.126;2022-11-15T17:11:46;16.70;99.90
15625;DHT22;7912;51.376;6.126;2022-11-15T17:14:14;16.70;99.90
15625;DHT22;7912;51.376;6.126;2022-11-15T17:16:41;16.60;99.90
15625;DHT22;7912;51.376;6.126;2022-11-15T17:19:18;16.60;99.90
15625;DHT22;7912;51.376;6.126;2022-11-15T17:21:46;16.60;99.90
15625;DHT22;7912;51.376;6.126;2022-11-15T17:24:39;16.50;99.90
15625;DHT22;7912;51.376;6.126;2022-11-15T17:27:06;16.50;99.90
15625;DHT22;7912;51.376;6.126;2022-11-15T17:29:33;16.50;99.90
15625;DHT22;7912;51.376;6.126;2022-11-15T17:32:03;16.40;99.90
15625;DHT22;7912;51.376;6.126;2022-11-15T17:34:30;16.40;99.90
15625;DHT22;7912;51.376;6.126;2022-11-15T17:36:58;16.40;99.90
15625;DHT22;7912;51.376;6.126;2022-11-15T17:39:25;16.30;99.90
15625;DHT22;7912;51.376;6.126;2022-11-15T17:41:52;16.30;99.90
15625;DHT22;7912;51.376;6.126;2022-11-15T17:44:20;16.20;99.90
15625;DHT22;7912;51.376;6.126;2022-11-15T17:46:47;16.20;99.90
15625;DHT22;7912;51.376;6.126;2022-11-15T17:49:17;16.20;99.90
15625;DHT22;7912;51.376;6.126;2022-11-15T17:51:44;16.10;99.90
15625;DHT22;7912;51.376;6.126;2022-11-15T17:54:15;16.10;99.90
15625;DHT22;7912;51.376;6.126;2022-11-15T17:56:42;16.00;99.90
15625;DHT22;7912;51.376;6.126;2022-11-15T17:59:10;16.00;99.90
15625;DHT22;7912;51.376;6.126;2022-11-15T18:01:44;16.00;99.90
15625;DHT22;7912;51.376;6.126;2022-11-15T18:04:11;15.90;99.90
15625;DHT22;7912;51.376;6.126;2022-11-15T18:06:41;15.90;99.90
15625;DHT22;7912;51.376;6.126;2022-11-15T18:09:08;15.80;99.90
15625;DHT22;7912;51.376;6.126;2022-11-15T18:11:38;15.80;99.90
15625;DHT22;7912;51.376;6.126;2022-11-15T18:14:12;15.70;99.90